createdAt,value
2018-07-09T00:01:22.165Z,2.50
2018-07-09T00:02:22.223Z,2.70
2018-07-09T00:03:22.284Z,3.00
2018-07-09T00:04:22.345Z,2.70
2018-07-09T00:05:22.405Z,4.40
2018-07-09T00:06:22.466Z,3.20
2018-07-09T00:07:22.525Z,2.70
2018-07-09T00:08:22.585Z,2.40
2018-07-09T00:09:22.645Z,2.60
2018-07-09T00:10:22.705Z,2.40
2018-07-09T00:11:22.766Z,2.80
2018-07-09T00:12:22.826Z,2.80
2018-07-09T00:13:22.886Z,2.90
2018-07-09T00:14:22.946Z,2.60
2018-07-09T00:15:23.007Z,2.80
2018-07-09T00:16:23.067Z,2.30
2018-07-09T00:17:23.124Z,2.70
2018-07-09T00:18:23.188Z,2.90
2018-07-09T00:19:23.248Z,2.50
2018-07-09T00:20:23.308Z,2.80
2018-07-09T00:21:23.369Z,2.60
2018-07-09T00:22:23.427Z,3.00
2018-07-09T00:23:23.487Z,2.80
2018-07-09T00:24:23.548Z,2.90
2018-07-09T00:25:23.607Z,2.80
2018-07-09T00:26:23.667Z,2.80
2018-07-09T00:27:23.728Z,2.60
2018-07-09T00:28:23.788Z,2.80
2018-07-09T00:29:23.846Z,2.60
2018-07-09T00:30:23.909Z,2.70
2018-07-09T00:31:23.970Z,2.60
2018-07-09T00:32:24.145Z,2.60
2018-07-09T00:33:24.091Z,2.60
2018-07-09T00:34:24.148Z,2.70
2018-07-09T00:35:24.208Z,2.50
2018-07-09T00:37:06.707Z,2.90
2018-07-09T00:38:06.767Z,3.00
2018-07-09T00:39:07.002Z,2.80
2018-07-09T00:40:06.888Z,2.90
2018-07-09T00:41:06.947Z,2.80
2018-07-09T00:43:29.565Z,2.90
2018-07-09T00:44:29.621Z,3.00
2018-07-09T00:45:29.684Z,2.70
2018-07-09T00:46:29.742Z,2.60
2018-07-09T00:47:29.801Z,2.50
2018-07-09T00:48:29.862Z,2.80
2018-07-09T00:49:29.921Z,2.90
2018-07-09T00:50:29.981Z,2.60
2018-07-09T00:51:30.042Z,2.60
2018-07-09T00:52:30.101Z,2.70
2018-07-09T00:53:30.160Z,2.90
2018-07-09T00:54:30.471Z,2.90
2018-07-09T00:55:30.281Z,2.50
2018-07-09T00:56:30.340Z,2.80
2018-07-09T00:57:30.400Z,3.20
2018-07-09T00:58:30.459Z,3.10
2018-07-09T00:59:30.520Z,2.50
2018-07-09T01:00:30.580Z,2.80
2018-07-09T01:01:30.640Z,3.10
2018-07-09T01:02:30.701Z,2.70
2018-07-09T01:03:30.759Z,2.80
2018-07-09T01:04:30.819Z,3.00
2018-07-09T01:05:30.879Z,2.60
2018-07-09T01:06:30.938Z,2.80
2018-07-09T01:07:30.998Z,3.20
2018-07-09T01:08:31.058Z,3.30
2018-07-09T01:09:31.124Z,2.70
2018-07-09T01:10:31.177Z,2.90
2018-07-09T01:11:31.236Z,2.80
2018-07-09T01:12:31.297Z,3.10
2018-07-09T01:13:31.357Z,2.80
2018-07-09T01:14:31.418Z,2.60
2018-07-09T01:15:31.476Z,2.60
2018-07-09T01:16:31.942Z,2.40
2018-07-09T01:17:31.597Z,2.60
2018-07-09T01:18:31.653Z,2.80
2018-07-09T01:20:29.250Z,2.90
2018-07-09T01:21:29.254Z,2.60
2018-07-09T01:22:29.316Z,2.80
2018-07-09T01:23:29.374Z,2.80
2018-07-09T01:24:29.434Z,2.70
2018-07-09T01:25:29.494Z,2.90
2018-07-09T01:26:29.555Z,3.00
2018-07-09T01:27:29.614Z,2.60
2018-07-09T01:28:29.673Z,2.80
2018-07-09T01:29:29.733Z,2.80
2018-07-09T01:30:29.793Z,3.00
2018-07-09T01:31:29.852Z,2.70
2018-07-09T01:32:30.722Z,2.60
2018-07-09T01:33:29.974Z,3.00
2018-07-09T01:34:30.032Z,2.80
2018-07-09T01:35:30.091Z,3.00
2018-07-09T01:36:30.151Z,2.60
2018-07-09T01:37:30.209Z,3.00
2018-07-09T01:38:30.269Z,2.60
2018-07-09T01:39:30.329Z,3.10
2018-07-09T01:40:30.388Z,2.60
2018-07-09T01:41:30.448Z,2.90
2018-07-09T01:42:30.508Z,2.60
2018-07-09T01:43:30.566Z,3.00
2018-07-09T01:44:30.627Z,3.20
2018-07-09T01:45:30.686Z,2.70
2018-07-09T01:46:30.746Z,2.90
2018-07-09T01:47:30.804Z,2.50
2018-07-09T01:48:30.866Z,2.80
2018-07-09T01:49:30.927Z,2.70
2018-07-09T01:50:30.985Z,2.80
2018-07-09T01:51:31.045Z,2.80
2018-07-09T01:52:31.102Z,2.70
2018-07-09T01:53:31.163Z,2.70
2018-07-09T01:54:31.225Z,3.00
2018-07-09T01:55:31.280Z,2.70
2018-07-09T01:56:31.341Z,2.70
2018-07-09T01:57:31.400Z,2.80
2018-07-09T01:58:31.460Z,2.70
2018-07-09T01:59:31.519Z,2.60
2018-07-09T02:00:31.581Z,2.70
2018-07-09T02:01:31.639Z,2.80
2018-07-09T02:02:31.698Z,3.10
2018-07-09T02:03:31.757Z,2.50
2018-07-09T02:04:31.816Z,2.80
2018-07-09T02:05:31.876Z,2.70
2018-07-09T02:06:31.936Z,3.00
2018-07-09T02:07:31.994Z,2.90
2018-07-09T02:08:32.055Z,2.90
2018-07-09T02:09:32.115Z,2.90
2018-07-09T02:10:32.174Z,2.60
2018-07-09T02:11:32.233Z,2.90
2018-07-09T02:12:32.292Z,2.80
2018-07-09T02:13:32.354Z,2.80
2018-07-09T02:14:32.411Z,2.80
2018-07-09T02:15:32.470Z,2.80
2018-07-09T02:16:32.529Z,2.80
2018-07-09T02:17:32.594Z,2.80
2018-07-09T02:18:32.649Z,2.60
2018-07-09T02:19:32.707Z,3.10
2018-07-09T02:20:32.833Z,3.10
2018-07-09T02:21:32.826Z,3.20
2018-07-09T02:22:32.886Z,2.70
2018-07-09T02:23:32.945Z,2.60
2018-07-09T02:24:33.005Z,2.90
2018-07-09T02:25:33.064Z,2.80
2018-07-09T02:26:33.123Z,2.70
2018-07-09T02:27:33.182Z,2.60
2018-07-09T02:28:33.244Z,3.30
2018-07-09T02:29:33.300Z,2.80
2018-07-09T02:30:33.360Z,2.70
2018-07-09T02:31:33.420Z,2.80
2018-07-09T02:32:33.479Z,2.80
2018-07-09T02:33:33.540Z,2.70
2018-07-09T02:34:33.601Z,2.50
2018-07-09T02:35:33.657Z,2.80
2018-07-09T02:36:33.716Z,2.80
2018-07-09T02:37:33.776Z,2.80
2018-07-09T02:38:33.836Z,3.00
2018-07-09T02:39:33.894Z,2.80
2018-07-09T02:40:33.956Z,2.90
2018-07-09T02:41:34.013Z,3.10
2018-07-09T02:42:34.072Z,2.80
2018-07-09T02:43:34.281Z,2.90
2018-07-09T02:44:34.191Z,2.80
2018-07-09T02:45:34.249Z,2.80
2018-07-09T02:46:34.309Z,2.60
2018-07-09T02:47:34.367Z,2.90
2018-07-09T02:48:34.428Z,3.00
2018-07-09T02:49:34.486Z,2.90
2018-07-09T02:50:34.545Z,3.30
2018-07-09T02:51:34.606Z,3.20
2018-07-09T02:52:34.665Z,2.80
2018-07-09T02:53:34.723Z,2.60
2018-07-09T02:54:34.782Z,2.70
2018-07-09T02:55:34.841Z,2.70
2018-07-09T02:56:34.900Z,2.90
2018-07-09T02:57:34.959Z,3.20
2018-07-09T02:58:35.018Z,2.80
2018-07-09T02:59:35.078Z,2.70
2018-07-09T03:00:35.135Z,2.90
2018-07-09T03:01:35.197Z,2.70
2018-07-09T03:02:35.256Z,2.60
2018-07-09T03:03:35.313Z,2.90
2018-07-09T03:04:35.375Z,2.80
2018-07-09T03:05:35.432Z,3.00
2018-07-09T03:06:35.499Z,3.40
2018-07-09T03:07:35.860Z,2.70
2018-07-09T03:08:35.608Z,2.90
2018-07-09T03:09:35.669Z,2.90
2018-07-09T03:10:35.729Z,2.80
2018-07-09T03:11:35.789Z,2.60
2018-07-09T03:12:35.847Z,2.80
2018-07-09T03:13:35.905Z,2.90
2018-07-09T03:14:35.963Z,3.20
2018-07-09T03:15:36.021Z,2.80
2018-07-09T03:16:36.082Z,2.80
2018-07-09T03:17:36.146Z,2.90
2018-07-09T03:18:36.201Z,3.10
2018-07-09T03:19:36.260Z,2.90
2018-07-09T03:20:36.318Z,3.00
2018-07-09T03:21:36.377Z,3.00
2018-07-09T03:22:36.438Z,2.80
2018-07-09T03:23:36.495Z,2.80
2018-07-09T03:24:36.554Z,2.80
2018-07-09T03:25:36.777Z,2.80
2018-07-09T03:26:36.673Z,2.80
2018-07-09T03:27:36.731Z,2.90
2018-07-09T03:28:36.790Z,2.90
2018-07-09T03:29:36.854Z,2.90
2018-07-09T03:30:36.909Z,2.90
2018-07-09T03:31:36.968Z,3.30
2018-07-09T03:32:37.028Z,2.80
2018-07-09T03:33:37.086Z,2.70
2018-07-09T03:34:37.145Z,3.10
2018-07-09T03:35:37.203Z,2.90
2018-07-09T03:36:37.263Z,2.90
2018-07-09T03:37:37.322Z,2.80
2018-07-09T03:38:37.381Z,3.10
2018-07-09T03:39:37.439Z,3.30
2018-07-09T03:40:37.498Z,3.10
2018-07-09T03:41:37.557Z,3.00
2018-07-09T03:42:37.620Z,3.10
2018-07-09T03:43:37.674Z,2.70
2018-07-09T03:44:37.738Z,2.70
2018-07-09T03:45:37.793Z,2.90
2018-07-09T03:46:37.857Z,2.90
2018-07-09T03:47:37.911Z,3.10
2018-07-09T03:48:37.970Z,3.00
2018-07-09T03:49:38.030Z,3.10
2018-07-09T03:50:38.088Z,3.10
2018-07-09T03:51:38.147Z,2.80
2018-07-09T03:52:38.206Z,2.90
2018-07-09T03:53:38.265Z,3.10
2018-07-09T03:54:38.324Z,2.80
2018-07-09T03:55:38.382Z,3.40
2018-07-09T03:56:38.441Z,2.90
2018-07-09T03:57:38.500Z,3.10
2018-07-09T03:58:38.562Z,3.40
2018-07-09T03:59:38.619Z,3.20
2018-07-09T04:00:38.693Z,3.00
2018-07-09T04:01:38.737Z,3.20
2018-07-09T04:02:38.795Z,3.20
2018-07-09T04:03:38.854Z,3.00
2018-07-09T04:04:38.912Z,3.00
2018-07-09T04:05:38.972Z,2.70
2018-07-09T04:06:39.031Z,2.70
2018-07-09T04:07:39.090Z,3.00
2018-07-09T04:08:39.149Z,2.90
2018-07-09T04:09:39.208Z,3.20
2018-07-09T04:10:39.266Z,2.60
2018-07-09T04:11:39.325Z,3.20
2018-07-09T04:12:39.384Z,2.70
2018-07-09T04:13:39.444Z,3.20
2018-07-09T04:14:39.508Z,3.10
2018-07-09T04:15:39.563Z,3.40
2018-07-09T04:16:39.620Z,3.40
2018-07-09T04:17:39.684Z,3.10
2018-07-09T04:18:39.739Z,2.90
2018-07-09T04:19:39.798Z,2.50
2018-07-09T04:20:39.857Z,3.00
2018-07-09T04:21:39.916Z,2.90
2018-07-09T04:22:39.976Z,3.00
2018-07-09T04:23:40.038Z,3.40
2018-07-09T04:24:40.093Z,2.90
2018-07-09T04:25:40.152Z,2.90
2018-07-09T04:26:40.211Z,2.70
2018-07-09T04:27:40.268Z,2.80
2018-07-09T04:28:40.333Z,3.00
2018-07-09T04:29:40.391Z,2.60
2018-07-09T04:30:40.448Z,2.70
2018-07-09T04:31:40.519Z,2.80
2018-07-09T04:32:40.566Z,2.80
2018-07-09T04:33:40.627Z,3.20
2018-07-09T04:34:40.685Z,2.90
2018-07-09T04:35:40.742Z,3.10
2018-07-09T04:36:40.802Z,3.00
2018-07-09T04:37:40.873Z,2.80
2018-07-09T04:38:40.920Z,2.80
2018-07-09T04:39:40.979Z,2.80
2018-07-09T04:40:41.038Z,3.00
2018-07-09T04:41:41.098Z,2.80
2018-07-09T04:42:41.407Z,3.10
2018-07-09T04:43:41.215Z,2.80
2018-07-09T04:44:41.275Z,2.50
2018-07-09T04:45:41.333Z,2.90
2018-07-09T04:46:41.394Z,3.10
2018-07-09T04:47:41.452Z,2.80
2018-07-09T04:48:41.511Z,2.70
2018-07-09T04:49:41.571Z,2.80
2018-07-09T04:50:41.631Z,2.80
2018-07-09T04:51:41.692Z,2.60
2018-07-09T04:52:41.747Z,2.80
2018-07-09T04:53:41.809Z,2.90
2018-07-09T04:54:41.868Z,2.90
2018-07-09T04:55:41.926Z,2.80
2018-07-09T04:56:41.986Z,3.20
2018-07-09T04:57:42.045Z,3.00
2018-07-09T04:58:42.104Z,3.20
2018-07-09T04:59:42.163Z,3.20
2018-07-09T05:00:42.225Z,2.50
2018-07-09T05:01:42.284Z,3.20
2018-07-09T05:02:42.342Z,3.00
2018-07-09T05:03:42.400Z,3.30
2018-07-09T05:04:42.461Z,2.80
2018-07-09T05:05:42.622Z,2.80
2018-07-09T05:06:42.580Z,3.00
2018-07-09T05:07:42.638Z,2.70
2018-07-09T05:08:42.698Z,2.80
2018-07-09T05:09:42.757Z,2.80
2018-07-09T05:10:42.818Z,3.10
2018-07-09T05:11:42.876Z,2.80
2018-07-09T05:12:42.936Z,2.90
2018-07-09T05:13:42.995Z,2.60
2018-07-09T05:14:43.055Z,3.20
2018-07-09T05:15:43.112Z,3.30
2018-07-09T05:16:43.174Z,3.20
2018-07-09T05:17:43.234Z,2.80
2018-07-09T05:18:43.294Z,3.50
2018-07-09T05:19:43.352Z,3.30
2018-07-09T05:20:43.492Z,3.10
2018-07-09T05:21:43.472Z,3.40
2018-07-09T05:22:43.532Z,2.90
2018-07-09T05:23:43.591Z,2.90
2018-07-09T05:24:43.651Z,3.00
2018-07-09T05:25:43.711Z,3.00
2018-07-09T05:26:43.771Z,3.20
2018-07-09T05:27:43.829Z,3.00
2018-07-09T05:28:43.896Z,2.90
2018-07-09T05:29:43.949Z,2.90
2018-07-09T05:30:44.010Z,3.00
2018-07-09T05:31:44.068Z,3.30
2018-07-09T05:32:44.128Z,2.80
2018-07-09T05:33:44.187Z,2.90
2018-07-09T05:34:44.248Z,3.00
2018-07-09T05:35:44.308Z,3.20
2018-07-09T05:36:44.370Z,3.20
2018-07-09T05:37:44.428Z,3.40
2018-07-09T05:38:44.488Z,3.20
2018-07-09T05:39:44.546Z,3.50
2018-07-09T05:40:44.607Z,3.00
2018-07-09T05:41:44.668Z,3.40
2018-07-09T05:42:44.727Z,3.20
2018-07-09T05:43:44.786Z,3.50
2018-07-09T05:44:44.847Z,3.40
2018-07-09T05:45:44.910Z,3.30
2018-07-09T05:46:44.967Z,3.10
2018-07-09T05:47:45.031Z,3.40
2018-07-09T05:48:45.090Z,3.30
2018-07-09T05:49:45.148Z,3.20
2018-07-09T05:50:47.830Z,3.40
2018-07-09T05:51:45.268Z,3.30
2018-07-09T05:52:45.328Z,3.30
2018-07-09T05:53:45.388Z,3.10
2018-07-09T05:54:45.462Z,3.00
2018-07-09T05:55:45.509Z,3.40
2018-07-09T05:56:45.570Z,3.30
2018-07-09T05:57:45.629Z,3.30
2018-07-09T05:58:45.690Z,3.00
2018-07-09T05:59:45.749Z,3.00
2018-07-09T06:00:45.812Z,3.10
2018-07-09T06:01:45.871Z,3.10
2018-07-09T06:02:45.931Z,3.30
2018-07-09T06:03:45.991Z,2.80
2018-07-09T06:04:46.052Z,3.10
2018-07-09T06:05:46.112Z,3.40
2018-07-09T06:06:46.173Z,3.00
2018-07-09T06:07:46.233Z,3.30
2018-07-09T06:08:46.294Z,3.00
2018-07-09T06:09:46.354Z,2.90
2018-07-09T06:10:46.415Z,3.10
2018-07-09T06:11:46.475Z,3.00
2018-07-09T06:12:46.536Z,2.80
2018-07-09T06:13:46.597Z,2.80
2018-07-09T06:14:46.658Z,2.90
2018-07-09T06:15:46.720Z,3.10
2018-07-09T06:16:46.779Z,2.80
2018-07-09T06:17:46.843Z,3.10
2018-07-09T06:18:46.903Z,2.70
2018-07-09T06:19:47.006Z,2.90
2018-07-09T06:20:47.021Z,2.90
2018-07-09T06:21:47.082Z,3.10
2018-07-09T06:22:47.144Z,2.90
2018-07-09T06:23:47.203Z,3.20
2018-07-09T06:24:47.263Z,3.10
2018-07-09T06:25:47.325Z,3.10
2018-07-09T06:26:47.387Z,3.10
2018-07-09T06:27:47.447Z,3.00
2018-07-09T06:28:47.507Z,3.20
2018-07-09T06:29:47.570Z,2.90
2018-07-09T06:30:47.631Z,3.30
2018-07-09T06:31:47.691Z,3.00
2018-07-09T06:32:47.752Z,2.90
2018-07-09T06:33:47.813Z,2.90
2018-07-09T06:34:47.879Z,3.10
2018-07-09T06:35:47.935Z,2.90
2018-07-09T06:36:47.997Z,2.60
2018-07-09T06:37:48.059Z,2.90
2018-07-09T06:38:48.839Z,3.10
2018-07-09T06:39:48.185Z,3.00
2018-07-09T06:40:48.493Z,2.80
2018-07-09T06:41:48.311Z,2.80
2018-07-09T06:42:48.366Z,2.90
2018-07-09T06:43:48.427Z,3.00
2018-07-09T06:44:48.555Z,2.80
2018-07-09T06:45:48.551Z,2.90
2018-07-09T06:46:48.614Z,3.30
2018-07-09T06:47:48.677Z,2.80
2018-07-09T06:48:48.737Z,3.00
2018-07-09T06:49:48.799Z,2.90
2018-07-09T06:50:48.861Z,2.60
2018-07-09T06:51:48.927Z,3.00
2018-07-09T06:52:48.986Z,2.80
2018-07-09T06:53:49.049Z,2.70
2018-07-09T06:54:49.111Z,3.10
2018-07-09T06:55:49.175Z,2.50
2018-07-09T06:56:49.236Z,3.00
2018-07-09T06:57:49.300Z,2.90
2018-07-09T06:58:49.363Z,2.80
2018-07-09T06:59:49.423Z,2.60
2018-07-09T07:00:49.487Z,3.20
2018-07-09T07:01:49.551Z,3.00
2018-07-09T07:02:49.611Z,2.80
2018-07-09T07:03:49.674Z,2.80
2018-07-09T07:04:49.738Z,2.90
2018-07-09T07:05:49.799Z,2.80
2018-07-09T07:06:49.863Z,2.90
2018-07-09T07:07:49.925Z,2.90
2018-07-09T07:08:50.063Z,2.90
2018-07-09T07:09:50.052Z,2.80
2018-07-09T07:10:50.114Z,2.70
2018-07-09T07:11:50.177Z,2.90
2018-07-09T07:12:50.239Z,2.70
2018-07-09T07:13:50.307Z,2.90
2018-07-09T07:14:50.369Z,2.60
2018-07-09T07:15:50.429Z,2.50
2018-07-09T07:16:50.493Z,2.60
2018-07-09T07:17:50.557Z,2.60
2018-07-09T07:18:50.628Z,2.50
2018-07-09T07:19:50.682Z,2.30
2018-07-09T07:20:50.745Z,2.50
2018-07-09T07:21:50.809Z,2.40
2018-07-09T07:22:50.873Z,2.50
2018-07-09T07:23:50.935Z,2.60
2018-07-09T07:24:50.999Z,2.40
2018-07-09T07:25:51.063Z,2.10
2018-07-09T07:26:51.126Z,2.40
2018-07-09T07:27:51.188Z,2.50
2018-07-09T07:28:51.500Z,2.00
2018-07-09T07:29:51.317Z,2.30
2018-07-09T07:30:51.378Z,2.40
2018-07-09T07:31:51.442Z,2.70
2018-07-09T07:32:51.576Z,2.30
2018-07-09T07:33:51.574Z,2.40
2018-07-09T07:34:51.634Z,2.20
2018-07-09T07:35:51.697Z,2.20
2018-07-09T07:36:51.788Z,2.20
2018-07-09T07:37:51.825Z,2.30
2018-07-09T07:38:51.889Z,2.40
2018-07-09T07:39:51.951Z,2.60
2018-07-09T07:40:52.017Z,2.50
2018-07-09T07:41:52.080Z,2.10
2018-07-09T07:42:52.145Z,2.30
2018-07-09T07:43:52.210Z,2.30
2018-07-09T07:44:52.335Z,2.50
2018-07-09T07:45:52.334Z,2.40
2018-07-09T07:46:52.398Z,2.50
2018-07-09T07:47:52.461Z,2.40
2018-07-09T07:48:52.525Z,2.50
2018-07-09T07:49:52.588Z,2.70
2018-07-09T07:50:52.654Z,2.80
2018-07-09T07:51:52.715Z,2.70
2018-07-09T07:52:52.779Z,2.10
2018-07-09T07:53:52.843Z,2.60
2018-07-09T07:54:52.906Z,2.60
2018-07-09T07:55:52.993Z,2.80
2018-07-09T07:56:53.033Z,2.50
2018-07-09T07:57:53.096Z,2.60
2018-07-09T07:58:53.160Z,2.40
2018-07-09T07:59:53.222Z,2.20
2018-07-09T08:00:53.286Z,2.70
2018-07-09T08:01:53.349Z,2.50
2018-07-09T08:02:53.479Z,2.60
2018-07-09T08:03:53.481Z,2.40
2018-07-09T08:04:53.538Z,2.20
2018-07-09T08:05:53.602Z,2.10
2018-07-09T08:06:53.680Z,1.90
2018-07-09T08:07:53.728Z,2.30
2018-07-09T08:08:53.791Z,2.40
2018-07-09T08:09:53.856Z,1.80
2018-07-09T08:10:53.919Z,2.00
2018-07-09T08:11:54.627Z,1.70
2018-07-09T08:13:26.877Z,1.90
2018-07-09T08:13:54.108Z,1.90
2018-07-09T08:14:54.171Z,1.90
2018-07-09T08:15:54.245Z,1.90
2018-07-09T08:16:54.299Z,2.20
2018-07-09T08:17:54.366Z,2.00
2018-07-09T08:18:54.423Z,2.30
2018-07-09T08:19:54.490Z,2.10
2018-07-09T08:20:54.549Z,2.20
2018-07-09T08:21:54.625Z,2.00
2018-07-09T08:22:54.677Z,2.00
2018-07-09T08:23:54.740Z,1.90
2018-07-09T08:24:55.226Z,1.90
2018-07-09T08:25:54.879Z,1.70
2018-07-09T08:26:54.930Z,1.70
2018-07-09T08:27:54.994Z,1.80
2018-07-09T08:28:55.055Z,1.90
2018-07-09T08:29:55.119Z,1.80
2018-07-09T08:30:55.182Z,1.90
2018-07-09T08:31:55.246Z,2.00
2018-07-09T08:32:55.309Z,1.70
2018-07-09T08:33:55.373Z,1.80
2018-07-09T08:34:55.437Z,1.80
2018-07-09T08:35:55.498Z,1.80
2018-07-09T08:36:55.561Z,1.80
2018-07-09T08:37:55.629Z,1.80
2018-07-09T08:38:55.688Z,1.80
2018-07-09T08:39:55.752Z,1.80
2018-07-09T08:40:55.817Z,1.80
2018-07-09T08:41:55.882Z,1.70
2018-07-09T08:42:55.941Z,1.60
2018-07-09T08:43:56.006Z,1.80
2018-07-09T08:44:56.068Z,1.70
2018-07-09T08:45:56.130Z,1.80
2018-07-09T08:46:56.197Z,2.10
2018-07-09T08:47:56.256Z,1.60
2018-07-09T08:48:56.320Z,1.80
2018-07-09T08:49:56.388Z,1.50
2018-07-09T08:50:56.448Z,1.60
2018-07-09T08:51:56.511Z,1.60
2018-07-09T08:52:56.574Z,1.50
2018-07-09T08:53:56.638Z,1.60
2018-07-09T08:54:56.704Z,1.90
2018-07-09T08:55:56.764Z,1.80
2018-07-09T08:56:56.829Z,1.90
2018-07-09T08:57:56.893Z,1.80
2018-07-09T08:58:56.955Z,1.60
2018-07-09T08:59:57.016Z,1.80
2018-07-09T09:00:57.080Z,1.60
2018-07-09T09:01:57.151Z,1.70
2018-07-09T09:02:57.209Z,1.90
2018-07-09T09:03:57.273Z,1.70
2018-07-09T09:04:57.335Z,1.70
2018-07-09T09:05:57.398Z,1.50
2018-07-09T09:06:57.464Z,1.80
2018-07-09T09:07:57.528Z,1.90
2018-07-09T09:08:57.589Z,1.80
2018-07-09T09:09:57.661Z,1.70
2018-07-09T09:10:57.717Z,1.50
2018-07-09T09:11:57.780Z,1.60
2018-07-09T09:12:57.845Z,1.70
2018-07-09T09:13:57.907Z,2.00
2018-07-09T09:14:57.972Z,1.90
2018-07-09T09:15:58.039Z,1.80
2018-07-09T09:16:58.105Z,1.70
2018-07-09T09:17:58.162Z,1.90
2018-07-09T09:18:58.228Z,1.90
2018-07-09T09:19:58.297Z,1.90
2018-07-09T09:20:58.353Z,2.10
2018-07-09T09:21:58.416Z,1.90
2018-07-09T09:22:58.481Z,1.80
2018-07-09T09:23:58.544Z,1.80
2018-07-09T09:24:58.609Z,1.90
2018-07-09T09:25:58.672Z,1.80
2018-07-09T09:26:58.736Z,1.80
2018-07-09T09:27:58.823Z,2.10
2018-07-09T09:28:58.864Z,2.40
2018-07-09T09:29:58.928Z,1.90
2018-07-09T09:30:58.993Z,2.80
2018-07-09T09:31:59.054Z,1.80
2018-07-09T09:32:59.119Z,2.00
2018-07-09T09:33:59.184Z,2.30
2018-07-09T09:34:59.249Z,2.40
2018-07-09T09:35:59.316Z,2.10
2018-07-09T09:36:59.378Z,2.10
2018-07-09T09:37:59.442Z,1.90
2018-07-09T09:38:59.507Z,2.20
2018-07-09T09:39:59.570Z,2.00
2018-07-09T09:40:59.637Z,2.10
2018-07-09T09:41:59.700Z,2.00
2018-07-09T09:42:59.769Z,2.10
2018-07-09T09:43:59.829Z,2.10
2018-07-09T09:44:59.893Z,2.00
2018-07-09T09:45:59.958Z,2.00
2018-07-09T09:47:00.025Z,2.30
2018-07-09T09:48:00.088Z,2.10
2018-07-09T09:49:00.151Z,1.80
2018-07-09T09:50:00.217Z,2.30
2018-07-09T09:51:00.283Z,1.90
2018-07-09T09:52:00.347Z,2.00
2018-07-09T09:53:00.414Z,1.90
2018-07-09T09:54:00.478Z,2.20
2018-07-09T09:55:00.599Z,2.00
2018-07-09T09:56:00.628Z,1.80
2018-07-09T09:57:00.672Z,1.90
2018-07-09T09:58:00.738Z,1.90
2018-07-09T09:59:00.804Z,2.20
2018-07-09T10:00:00.875Z,2.00
2018-07-09T10:01:00.934Z,1.60
2018-07-09T10:02:01.002Z,1.70
2018-07-09T10:03:01.065Z,1.90
2018-07-09T10:04:01.129Z,1.60
2018-07-09T10:05:01.198Z,1.80
2018-07-09T10:06:01.261Z,1.90
2018-07-09T10:07:01.327Z,1.90
2018-07-09T10:08:01.392Z,1.80
2018-07-09T10:09:01.459Z,1.80
2018-07-09T10:10:01.525Z,1.90
2018-07-09T10:11:01.595Z,1.90
2018-07-09T10:12:01.659Z,2.00
2018-07-09T10:13:01.726Z,2.10
2018-07-09T10:14:01.794Z,2.30
2018-07-09T10:15:01.862Z,2.00
2018-07-09T10:16:01.927Z,2.40
2018-07-09T10:17:01.998Z,2.30
2018-07-09T10:18:02.072Z,2.10
2018-07-09T10:19:02.133Z,2.10
2018-07-09T10:20:02.203Z,2.40
2018-07-09T10:21:02.272Z,2.10
2018-07-09T10:22:02.341Z,2.10
2018-07-09T10:23:02.445Z,2.40
2018-07-09T10:24:02.480Z,1.90
2018-07-09T10:25:02.551Z,2.10
2018-07-09T10:26:02.621Z,2.00
2018-07-09T10:27:02.691Z,2.20
2018-07-09T10:28:02.761Z,2.00
2018-07-09T10:29:02.833Z,2.20
2018-07-09T10:30:02.905Z,2.10
2018-07-09T10:31:02.975Z,2.10
2018-07-09T10:32:03.046Z,1.90
2018-07-09T10:33:03.117Z,2.10
2018-07-09T10:34:03.189Z,2.10
2018-07-09T10:35:03.261Z,2.00
2018-07-09T10:36:03.334Z,2.10
2018-07-09T10:37:03.404Z,2.10
2018-07-09T10:38:03.477Z,2.00
2018-07-09T10:39:03.550Z,1.80
2018-07-09T10:40:03.621Z,1.80
2018-07-09T10:41:03.695Z,1.70
2018-07-09T10:42:03.767Z,1.90
2018-07-09T10:43:03.840Z,2.10
2018-07-09T10:44:03.912Z,1.90
2018-07-09T10:45:03.986Z,1.90
2018-07-09T10:46:04.060Z,1.90
2018-07-09T10:47:04.135Z,1.70
2018-07-09T10:48:04.208Z,1.80
2018-07-09T10:49:04.275Z,1.70
2018-07-09T10:50:04.347Z,1.80
2018-07-09T10:51:04.433Z,1.80
2018-07-09T10:52:04.491Z,2.00
2018-07-09T10:53:04.564Z,1.60
2018-07-09T10:54:04.636Z,1.50
2018-07-09T10:55:04.763Z,1.80
2018-07-09T10:56:04.782Z,1.70
2018-07-09T10:57:04.883Z,1.80
2018-07-09T10:58:04.940Z,1.70
2018-07-09T10:59:05.014Z,1.80
2018-07-09T11:00:05.069Z,1.90
2018-07-09T11:01:05.399Z,1.70
2018-07-09T11:02:05.216Z,1.80
2018-07-09T11:03:05.286Z,1.80
2018-07-09T11:04:05.356Z,1.70
2018-07-09T11:05:05.427Z,1.80
2018-07-09T11:06:05.498Z,1.90
2018-07-09T11:07:05.571Z,2.00
2018-07-09T11:08:05.642Z,1.70
2018-07-09T11:09:05.715Z,1.80
2018-07-09T11:10:05.789Z,1.70
2018-07-09T11:11:05.860Z,1.70
2018-07-09T11:12:05.928Z,1.90
2018-07-09T11:13:06.000Z,1.60
2018-07-09T11:14:06.072Z,1.60
2018-07-09T11:15:06.144Z,1.50
2018-07-09T11:16:06.216Z,1.70
2018-07-09T11:17:06.288Z,1.60
2018-07-09T11:18:06.361Z,1.60
2018-07-09T11:19:06.432Z,1.80
2018-07-09T11:20:06.504Z,1.50
2018-07-09T11:21:06.827Z,1.80
2018-07-09T11:22:06.650Z,1.80
2018-07-09T11:23:06.722Z,1.70
2018-07-09T11:24:06.794Z,1.70
2018-07-09T11:25:06.867Z,1.40
2018-07-09T11:26:06.946Z,1.80
2018-07-09T11:27:07.011Z,1.70
2018-07-09T11:28:07.082Z,1.70
2018-07-09T11:29:07.166Z,1.60
2018-07-09T11:30:07.231Z,1.80
2018-07-09T11:31:07.304Z,1.40
2018-07-09T11:32:07.376Z,1.40
2018-07-09T11:33:07.450Z,1.60
2018-07-09T11:34:07.528Z,1.50
2018-07-09T11:35:07.597Z,1.60
2018-07-09T11:36:07.743Z,1.60
2018-07-09T11:37:07.748Z,1.80
2018-07-09T11:38:07.821Z,1.50
2018-07-09T11:39:07.892Z,1.70
2018-07-09T11:40:07.965Z,1.90
2018-07-09T11:41:08.040Z,1.70
2018-07-09T11:42:08.155Z,1.60
2018-07-09T11:43:08.190Z,1.90
2018-07-09T11:44:08.263Z,1.70
2018-07-09T11:45:08.339Z,1.80
2018-07-09T11:46:08.411Z,1.50
2018-07-09T11:47:08.483Z,1.70
2018-07-09T11:48:08.556Z,1.70
2018-07-09T11:49:08.627Z,1.60
2018-07-09T11:50:08.706Z,1.80
2018-07-09T11:51:08.773Z,1.40
2018-07-09T11:52:08.860Z,1.30
2018-07-09T11:53:08.919Z,1.60
2018-07-09T11:54:08.996Z,1.40
2018-07-09T11:55:09.066Z,1.50
2018-07-09T11:56:09.138Z,1.20
2018-07-09T11:57:09.209Z,1.50
2018-07-09T11:58:09.284Z,1.40
2018-07-09T11:59:09.360Z,1.20
2018-07-09T12:00:09.432Z,1.50
2018-07-09T12:01:09.815Z,1.40
2018-07-09T12:02:09.580Z,1.70
2018-07-09T12:03:09.654Z,1.40
2018-07-09T12:04:09.727Z,1.80
2018-07-09T12:05:09.805Z,1.70
2018-07-09T12:06:09.876Z,1.50
2018-07-09T12:07:09.951Z,1.60
2018-07-09T12:08:10.025Z,1.60
2018-07-09T12:09:10.098Z,1.20
2018-07-09T12:10:10.173Z,1.40
2018-07-09T12:11:10.247Z,1.50
2018-07-09T12:12:10.323Z,1.50
2018-07-09T12:13:10.398Z,1.40
2018-07-09T12:14:10.469Z,1.50
2018-07-09T12:15:10.544Z,1.50
2018-07-09T12:16:10.618Z,1.60
2018-07-09T12:17:10.692Z,1.40
2018-07-09T12:18:11.016Z,1.50
2018-07-09T12:19:10.840Z,1.70
2018-07-09T12:20:10.915Z,1.50
2018-07-09T12:21:10.989Z,1.50
2018-07-09T12:22:11.061Z,1.60
2018-07-09T12:23:11.138Z,1.50
2018-07-09T12:24:11.212Z,1.60
2018-07-09T12:25:11.282Z,1.50
2018-07-09T12:26:11.357Z,1.50
2018-07-09T12:27:11.431Z,1.40
2018-07-09T12:28:11.503Z,1.50
2018-07-09T12:29:11.778Z,1.30
2018-07-09T12:30:11.652Z,1.40
2018-07-09T12:31:11.726Z,1.50
2018-07-09T12:32:11.798Z,1.40
2018-07-09T12:33:11.875Z,1.40
2018-07-09T12:34:11.946Z,1.40
2018-07-09T12:35:12.019Z,1.60
2018-07-09T12:36:12.104Z,1.30
2018-07-09T12:37:12.167Z,1.50
2018-07-09T12:38:12.239Z,1.70
2018-07-09T12:39:12.312Z,1.40
2018-07-09T12:40:12.386Z,2.20
2018-07-09T12:41:12.458Z,2.00
2018-07-09T12:42:12.548Z,1.40
2018-07-09T12:43:12.605Z,1.70
2018-07-09T12:44:12.677Z,1.40
2018-07-09T12:45:12.757Z,1.50
2018-07-09T12:46:12.824Z,1.50
2018-07-09T12:47:12.896Z,1.40
2018-07-09T12:48:12.970Z,1.50
2018-07-09T12:49:13.041Z,1.50
2018-07-09T12:50:13.114Z,1.50
2018-07-09T12:51:13.185Z,1.50
2018-07-09T12:52:13.258Z,1.50
2018-07-09T12:53:13.332Z,1.30
2018-07-09T12:54:13.409Z,1.80
2018-07-09T12:55:13.476Z,1.50
2018-07-09T12:56:13.548Z,1.70
2018-07-09T12:57:13.620Z,1.60
2018-07-09T12:58:13.691Z,1.60
2018-07-09T12:59:13.805Z,1.50
2018-07-09T13:00:13.866Z,1.50
2018-07-09T13:01:13.907Z,1.50
2018-07-09T13:02:13.978Z,1.30
2018-07-09T13:03:14.050Z,1.50
2018-07-09T13:04:14.120Z,1.60
2018-07-09T13:05:14.192Z,1.60
2018-07-09T13:06:14.264Z,1.90
2018-07-09T13:07:14.339Z,2.10
2018-07-09T13:08:14.406Z,1.70
2018-07-09T13:09:14.477Z,1.50
2018-07-09T13:10:14.550Z,1.70
2018-07-09T13:11:14.619Z,1.60
2018-07-09T13:12:14.689Z,1.50
2018-07-09T13:13:14.761Z,1.40
2018-07-09T13:14:14.838Z,1.70
2018-07-09T13:15:14.904Z,1.40
2018-07-09T13:16:14.974Z,1.50
2018-07-09T13:17:15.046Z,1.50
2018-07-09T13:18:15.123Z,1.60
2018-07-09T13:19:15.186Z,1.50
2018-07-09T13:20:15.257Z,1.50
2018-07-09T13:21:15.329Z,1.40
2018-07-09T13:22:15.402Z,1.50
2018-07-09T13:23:15.475Z,1.40